Manchester Airport Manchester US
ICAO: KMHT
IATA: MHT
Category: Large
Scheduled Services: Yes

Elevation: 266 ft
TransAlt. 18000 ft.

Airport Communications:
Boston Approach/Departure (Below 4000'):124.9
Boston Approach/Departure (4000'-10000'):134.75
ASOS:119.55
ATIS:119.55
CLNC DEL:135.9
GND:121.9
BANGOR RDO:114.4
TWR:121.3
UNICOM:122.95

KMHT Zoom In..

If you have problems with the map follow the link
https://www.worldairports.se/pages/airport.php?
ICAO=KMHT

Runways:

(A) RW 06 length 7650 ft width 150 ft
ILS 109.95 / hdg 58

(B) RW 17 length 9250 ft width 150 ft
ILS 109.10 / hdg 173

(C) RW 24 length 7650 ft width 150 ft
---- / hdg 238

(D) RW 35 length 9250 ft width 150 ft
ILS 109.10 / hdg 353

Location; KMHT
Day. 21 / Time. 05.53 Zulu
* Altimeter: 30.30
* Temperature: 4/° c. 39.2°f.
* Wind from: 340° Speed 09 kn.
Dewpoint: 04° c.
Visibility: 10 Statute Miles.
Clouds: Clear (automated report).

KMHT 210553Z 34009KT 10SM CLR M08/M19 A3030 RMK AO2 SLP281 4/004 T10831189 11061 21094 51008


Wind From 340°
Speed 09 kn.

 
 
jpsmedia worldairports.se 2020   terms of use